Time;durP1;ratioP1;P1;durP2;ratioP2;P2;SDS_P1;SDS_P2;PMS_P1;PMS_P2;Temp;Humidity;BMP_temperature;BMP_pressure;BME280_temperature;BME280_humidity;BME280_pressure;Samples;Min_cycle;Max_cycle;Signal;HPM_P1;HPM_P2
2022/12/31 00:02:04;;;;;;;2.00;0.65;;;11.10;99.90;;;9.68;100.00;99629.53;5009040;28;20042;-76
2022/12/31 00:04:29;;;;;;;1.60;0.63;;;11.10;99.90;;;9.68;100.00;99625.97;5010516;28;20042;-75
2022/12/31 00:06:55;;;;;;;1.08;0.68;;;11.10;99.90;;;9.69;100.00;99641.25;5005538;28;20033;-75
2022/12/31 00:09:21;;;;;;;1.42;0.85;;;11.10;99.90;;;9.69;100.00;99633.91;4999804;28;20042;-76
2022/12/31 00:11:46;;;;;;;1.00;0.70;;;11.10;99.90;;;9.70;100.00;99634.72;5010576;28;20072;-76
2022/12/31 00:14:12;;;;;;;0.82;0.50;;;11.10;99.90;;;9.73;100.00;99632.38;4995082;28;20038;-76
2022/12/31 00:16:40;;;;;;;1.33;0.75;;;11.20;99.90;;;9.76;100.00;99639.22;5008662;28;20037;-76
2022/12/31 00:19:11;;;;;;;0.80;0.63;;;11.10;99.90;;;9.72;100.00;99632.59;5010242;28;20148;-76
2022/12/31 00:21:38;;;;;;;0.90;0.50;;;11.20;99.90;;;9.79;100.00;99633.31;5010362;28;20042;-76
2022/12/31 00:24:05;;;;;;;1.52;0.52;;;11.20;99.90;;;9.83;100.00;99637.22;5009195;28;20387;-76
2022/12/31 00:26:33;;;;;;;0.90;0.68;;;11.20;99.90;;;9.85;100.00;99639.72;5004868;28;20165;-76
2022/12/31 00:29:02;;;;;;;0.50;0.50;;;11.20;99.90;;;9.91;100.00;99636.88;4998929;28;20045;-76
2022/12/31 00:31:35;;;;;;;1.10;0.80;;;11.30;99.90;;;9.96;100.00;99638.91;5003358;28;20088;-75
2022/12/31 00:34:02;;;;;;;0.82;0.70;;;11.40;99.90;;;10.00;100.00;99639.22;5000203;28;20422;-76
2022/12/31 00:36:35;;;;;;;1.17;0.73;;;11.40;99.90;;;10.00;100.00;99637.34;5008713;28;20049;-76
2022/12/31 00:39:04;;;;;;;0.50;0.50;;;11.40;99.90;;;10.02;100.00;99632.50;4998938;28;20117;-76
2022/12/31 00:41:30;;;;;;;1.13;0.73;;;11.40;99.90;;;10.01;100.00;99640.88;5005665;28;20117;-76
2022/12/31 00:43:56;;;;;;;1.27;0.70;;;11.40;99.90;;;10.02;100.00;99637.94;5008259;28;20520;-76
2022/12/31 00:46:23;;;;;;;1.67;0.60;;;11.40;99.90;;;10.05;100.00;99633.88;5008172;28;20121;-76
2022/12/31 00:48:49;;;;;;;1.50;0.90;;;11.50;99.90;;;10.04;100.00;99635.81;5005236;28;20065;-76
2022/12/31 00:51:19;;;;;;;0.82;0.73;;;11.50;99.90;;;10.06;100.00;99630.09;5011729;28;20050;-75
2022/12/31 00:53:45;;;;;;;2.00;0.93;;;11.50;99.90;;;10.01;100.00;99643.59;5010225;28;20045;-76
2022/12/31 00:56:15;;;;;;;2.63;1.08;;;11.50;99.90;;;10.04;100.00;99649.44;5006244;28;20202;-74
2022/12/31 00:58:41;;;;;;;1.90;1.23;;;11.50;99.90;;;10.04;100.00;99651.31;5011384;28;20494;-76
2022/12/31 01:01:21;;;;;;;1.33;1.05;;;11.50;99.90;;;10.00;100.00;99648.25;5014186;28;20462;-76
2022/12/31 01:03:51;;;;;;;1.70;1.08;;;11.50;99.90;;;9.82;100.00;99626.56;5005020;28;20030;-76
2022/12/31 01:06:18;;;;;;;1.60;1.13;;;11.40;99.90;;;9.85;100.00;99637.81;5007355;28;20490;-76
2022/12/31 01:08:47;;;;;;;2.55;1.10;;;11.30;99.90;;;9.81;100.00;99638.53;5002326;28;20031;-76
2022/12/31 01:11:18;;;;;;;2.38;1.10;;;11.30;99.90;;;9.77;100.00;99630.00;5003503;28;20097;-76
2022/12/31 01:13:52;;;;;;;3.42;1.10;;;11.20;99.90;;;9.75;100.00;99634.84;5024085;28;20042;-76
2022/12/31 01:16:30;;;;;;;2.20;1.10;;;11.20;99.90;;;9.76;100.00;99647.41;4994576;28;20375;-76
2022/12/31 01:19:04;;;;;;;1.65;1.08;;;11.20;99.90;;;9.75;100.00;99652.03;4990156;28;20034;-75
2022/12/31 01:21:31;;;;;;;2.00;1.10;;;11.20;99.90;;;9.74;100.00;99646.81;5001361;28;20049;-76
2022/12/31 01:23:58;;;;;;;2.45;1.10;;;11.20;99.90;;;9.79;100.00;99655.94;5018943;28;20046;-76
2022/12/31 01:26:24;;;;;;;1.90;1.00;;;11.20;99.90;;;9.80;100.00;99654.03;5011048;28;20042;-75
2022/12/31 01:28:50;;;;;;;1.83;1.10;;;11.20;99.90;;;9.83;100.00;99660.91;5007432;28;20096;-75
2022/12/31 01:31:19;;;;;;;1.83;1.10;;;11.20;99.90;;;9.77;100.00;99663.50;5007151;28;20447;-76
2022/12/31 01:33:45;;;;;;;1.70;1.00;;;11.20;99.90;;;9.79;100.00;99660.53;5007999;28;20417;-77
2022/12/31 01:36:18;;;;;;;1.92;1.10;;;11.20;99.90;;;9.76;100.00;99650.13;5012924;28;20041;-77
2022/12/31 01:38:44;;;;;;;2.30;1.38;;;11.20;99.90;;;9.71;100.00;99644.56;5013211;28;20464;-77
2022/12/31 01:41:20;;;;;;;3.65;1.23;;;11.20;99.90;;;9.71;100.00;99641.84;5012484;28;20038;-77
2022/12/31 01:43:57;;;;;;;2.35;1.20;;;11.20;99.90;;;9.74;100.00;99644.09;5009877;28;20056;-77
2022/12/31 01:46:37;;;;;;;2.40;1.30;;;11.20;99.90;;;9.69;100.00;99639.38;5009495;28;20042;-77
2022/12/31 01:49:32;;;;;;;2.78;1.77;;;11.20;99.90;;;9.57;100.00;99628.47;5013207;28;20038;-77
2022/12/31 01:52:26;;;;;;;2.75;1.90;;;11.10;99.90;;;9.60;100.00;99635.31;5003366;28;20037;-77
2022/12/31 01:55:04;;;;;;;2.60;1.52;;;11.10;99.90;;;9.63;100.00;99640.28;4996600;28;20564;-76
2022/12/31 01:57:30;;;;;;;3.45;1.55;;;11.10;99.90;;;9.57;100.00;99630.34;5002052;28;20516;-76
2022/12/31 01:59:59;;;;;;;2.17;1.35;;;11.10;99.90;;;9.62;100.00;99636.75;5012311;28;20112;-76
2022/12/31 02:02:25;;;;;;;2.15;1.27;;;11.10;99.90;;;9.66;100.00;99630.81;5011580;28;20034;-77
2022/12/31 02:04:56;;;;;;;2.20;1.25;;;11.10;99.90;;;9.67;100.00;99637.94;5001940;28;20037;-78
2022/12/31 02:07:23;;;;;;;2.15;1.15;;;11.10;99.90;;;9.69;100.00;99633.06;5005531;28;20038;-77
2022/12/31 02:09:49;;;;;;;1.70;1.00;;;11.10;99.90;;;9.72;100.00;99621.69;5006529;28;20037;-78
2022/12/31 02:12:14;;;;;;;2.28;1.23;;;11.10;99.90;;;9.69;100.00;99622.19;5002610;28;20042;-77
2022/12/31 02:14:48;;;;;;;2.13;1.20;;;11.10;99.90;;;9.69;100.00;99606.69;5005539;28;20041;-77
2022/12/31 02:17:34;;;;;;;1.90;1.20;;;11.10;99.90;;;9.72;100.00;99614.38;5012237;28;20038;-77
2022/12/31 02:20:23;;;;;;;1.83;0.93;;;11.10;99.90;;;9.73;100.00;99596.13;5007103;28;20046;-76
2022/12/31 02:23:22;;;;;;;1.45;1.00;;;11.20;99.90;;;9.80;100.00;99599.53;5007997;28;20116;-77
2022/12/31 02:26:26;;;;;;;1.15;0.75;;;11.20;99.90;;;9.84;100.00;99589.84;5002060;28;20093;-77
2022/12/31 02:29:29;;;;;;;1.30;0.70;;;11.20;99.90;;;9.81;100.00;99587.59;5009661;28;20050;-77
2022/12/31 02:32:20;;;;;;;2.08;1.13;;;11.30;99.90;;;9.74;100.00;99576.84;4991211;28;20152;-76
2022/12/31 02:35:01;;;;;;;2.15;1.25;;;11.20;99.90;;;9.80;100.00;99575.03;5008309;28;20052;-77
2022/12/31 02:37:32;;;;;;;4.07;1.40;;;11.20;99.90;;;9.79;100.00;99576.09;5000757;28;20041;-78
2022/12/31 02:39:59;;;;;;;2.45;1.20;;;11.20;99.90;;;9.81;100.00;99564.97;5027126;28;20038;-78
2022/12/31 02:42:25;;;;;;;3.10;1.20;;;11.30;99.90;;;9.74;100.00;99570.53;4992723;28;20125;-78
2022/12/31 02:44:50;;;;;;;1.98;1.10;;;11.20;99.90;;;9.77;100.00;99562.75;5003942;28;20045;-78
2022/12/31 02:48:04;;;;;;;2.33;1.10;;;11.30;99.90;;;9.81;100.00;99559.53;5011594;28;20037;-77
2022/12/31 02:50:54;;;;;;;1.95;1.10;;;11.30;99.90;;;9.90;100.00;99567.09;4993892;28;20451;-78
2022/12/31 02:53:43;;;;;;;;;;;11.30;99.90;;;9.86;100.00;99565.94;5003518;28;20045;-77
2022/12/31 02:56:25;;;;;;;1.30;0.70;;;11.30;99.90;;;9.97;100.00;99569.72;5011454;28;19918;-78
2022/12/31 03:02:15;;;;;;;4.72;0.60;;;11.50;99.90;;;10.08;100.00;99590.66;4999528;28;20041;-77
2022/12/31 03:04:49;;;;;;;1.00;0.55;;;11.50;99.90;;;10.08;100.00;99573.47;5005118;28;20030;-78
2022/12/31 03:07:24;;;;;;;1.17;0.60;;;11.50;99.90;;;10.05;100.00;99573.94;5000814;28;20501;-78
2022/12/31 03:09:50;;;;;;;2.47;0.60;;;11.50;99.90;;;9.99;100.00;99570.28;5006092;28;20449;-77
2022/12/31 03:15:18;;;;;;;2.40;0.77;;;11.40;99.90;;;10.01;100.00;99570.03;5011267;28;20096;-78
2022/12/31 03:17:55;;;;;;;;;;;11.40;99.90;;;9.95;100.00;99560.94;5006734;28;20034;-79
2022/12/31 03:23:17;;;;;;;1.05;0.60;;;11.30;99.90;;;9.87;100.00;99551.25;5004925;28;20117;-79
2022/12/31 03:25:44;;;;;;;1.45;1.17;;;11.30;99.90;;;9.85;100.00;99545.22;5004149;28;20065;-78
2022/12/31 03:28:15;;;;;;;1.37;0.80;;;11.30;99.90;;;9.88;100.00;99566.53;5002886;28;20496;-79
2022/12/31 03:30:44;;;;;;;1.65;0.90;;;11.30;99.90;;;9.86;100.00;99554.19;5010540;28;20030;-79
2022/12/31 03:33:10;;;;;;;1.33;0.70;;;11.30;99.90;;;9.86;100.00;99555.03;5010970;28;20042;-80
2022/12/31 03:35:38;;;;;;;2.80;0.95;;;11.30;99.90;;;9.82;100.00;99545.69;5011010;28;20462;-79
2022/12/31 03:38:05;;;;;;;3.75;0.90;;;11.30;99.90;;;9.88;100.00;99555.63;5008819;28;20065;-80
2022/12/31 03:40:35;;;;;;;1.52;1.02;;;11.30;99.90;;;9.89;100.00;99535.47;5009370;28;20482;-79
2022/12/31 03:43:01;;;;;;;2.45;1.00;;;11.30;99.90;;;9.90;100.00;99515.34;5003281;28;20046;-79
2022/12/31 03:45:27;;;;;;;3.08;1.10;;;11.40;99.90;;;9.92;100.00;99506.91;4992308;28;20065;-79
2022/12/31 03:47:52;;;;;;;1.38;0.90;;;11.40;99.90;;;9.88;100.00;99511.19;4998114;28;20076;-79
2022/12/31 03:50:19;;;;;;;1.70;0.93;;;11.40;99.90;;;9.93;100.00;99516.75;4997719;28;20068;-81
2022/12/31 03:52:45;;;;;;;2.15;0.98;;;11.40;99.90;;;9.95;100.00;99506.47;5024044;28;20061;-80
2022/12/31 03:55:11;;;;;;;2.15;0.98;;;11.40;99.90;;;9.96;100.00;99507.28;5025824;28;20491;-80
2022/12/31 03:57:37;;;;;;;1.50;0.80;;;11.40;99.90;;;9.93;100.00;99500.38;5003473;28;20088;-78
2022/12/31 04:00:12;;;;;;;2.22;0.90;;;11.40;99.90;;;9.85;100.00;99479.81;5004580;28;20034;-79
2022/12/31 04:02:37;;;;;;;2.67;0.85;;;11.40;99.90;;;9.86;100.00;99478.75;5001639;28;20038;-79
2022/12/31 04:05:04;;;;;;;1.95;0.90;;;11.40;99.90;;;9.81;100.00;99467.72;5001564;28;20446;-78
2022/12/31 04:07:29;;;;;;;2.22;0.98;;;11.40;99.90;;;9.90;100.00;99470.91;5004445;28;20121;-77
2022/12/31 04:09:55;;;;;;;2.10;0.80;;;11.40;99.90;;;9.91;100.00;99472.56;5010161;28;20397;-78
2022/12/31 04:12:21;;;;;;;2.53;1.13;;;11.30;99.90;;;9.93;100.00;99462.25;5006153;28;20088;-78
2022/12/31 04:14:47;;;;;;;1.25;0.90;;;11.40;99.90;;;9.95;100.00;99453.84;5010474;28;20091;-78
2022/12/31 04:17:12;;;;;;;1.60;1.10;;;11.40;99.90;;;9.89;100.00;99440.13;4995567;28;20411;-78
2022/12/31 04:19:38;;;;;;;1.70;1.10;;;11.40;99.90;;;9.95;100.00;99437.50;5002423;28;20048;-78
2022/12/31 04:22:04;;;;;;;1.83;1.20;;;11.40;99.90;;;9.97;100.00;99443.53;5007930;28;20116;-78
2022/12/31 04:24:30;;;;;;;1.63;1.00;;;11.40;99.90;;;9.94;100.00;99433.94;5010015;28;20033;-78
2022/12/31 04:26:56;;;;;;;1.67;1.15;;;11.40;99.90;;;9.90;100.00;99433.63;5008799;28;20034;-78
2022/12/31 04:29:22;;;;;;;2.08;1.20;;;11.30;99.90;;;9.89;100.00;99417.50;5012653;28;20966;-77
2022/12/31 04:31:48;;;;;;;1.60;1.10;;;11.40;99.90;;;9.91;100.00;99420.81;4998965;28;20042;-78
2022/12/31 04:34:14;;;;;;;1.48;1.10;;;11.40;99.90;;;9.88;100.00;99403.06;5006636;28;20406;-78
2022/12/31 04:36:39;;;;;;;1.73;1.17;;;11.40;99.90;;;10.10;100.00;99402.38;5013590;28;20034;-78
2022/12/31 04:39:05;;;;;;;1.95;0.80;;;11.50;99.90;;;10.18;100.00;99418.34;5013296;28;20096;-78
2022/12/31 04:41:31;;;;;;;1.10;0.60;;;11.60;99.90;;;10.31;100.00;99410.91;4996134;28;20049;-78
2022/12/31 04:43:58;;;;;;;2.20;0.90;;;11.70;99.90;;;10.38;100.00;99411.59;5000773;28;20043;-78
2022/12/31 04:46:28;;;;;;;1.85;0.70;;;11.80;99.90;;;10.40;100.00;99425.84;5006387;28;20463;-79
2022/12/31 04:48:55;;;;;;;1.10;0.70;;;11.90;99.90;;;10.57;100.00;99425.03;5011420;28;20038;-78
2022/12/31 04:51:21;;;;;;;1.75;0.70;;;12.00;99.90;;;10.64;100.00;99431.16;4997509;28;20038;-78
2022/12/31 04:53:47;;;;;;;1.50;0.80;;;12.00;99.90;;;10.67;100.00;99414.31;5010813;28;20029;-78
2022/12/31 04:56:15;;;;;;;1.48;0.85;;;12.10;99.90;;;10.76;100.00;99440.09;5010441;28;20390;-78
2022/12/31 04:58:40;;;;;;;1.57;0.90;;;12.20;99.90;;;10.82;100.00;99470.16;5013855;28;20469;-79
2022/12/31 05:01:07;;;;;;;1.25;0.80;;;12.30;99.90;;;10.94;100.00;99487.31;5009873;28;20041;-78
2022/12/31 05:03:34;;;;;;;1.60;0.88;;;12.20;99.90;;;10.98;100.00;99518.47;5001510;28;20064;-77
2022/12/31 05:06:09;;;;;;;2.97;1.50;;;12.30;99.90;;;10.70;100.00;99522.91;5011618;28;20034;-79
2022/12/31 05:08:35;;;;;;;2.72;1.70;;;12.20;99.90;;;10.67;100.00;99520.69;5010555;28;20037;-78
2022/12/31 05:11:01;;;;;;;2.75;1.48;;;12.10;99.90;;;10.66;100.00;99543.56;5000292;28;20035;-79
2022/12/31 05:13:27;;;;;;;3.10;1.80;;;12.10;99.90;;;10.56;100.00;99546.09;5008279;28;20037;-78
2022/12/31 05:15:53;;;;;;;2.25;1.55;;;12.00;99.90;;;10.54;100.00;99550.97;4996707;28;20043;-77
2022/12/31 05:18:20;;;;;;;1.98;1.40;;;12.00;99.90;;;10.48;100.00;99539.97;5013481;28;20042;-78
2022/12/31 05:20:47;;;;;;;2.22;1.48;;;11.90;99.90;;;10.46;100.00;99535.81;5013432;28;20037;-79
2022/12/31 05:23:15;;;;;;;1.52;1.20;;;11.90;99.90;;;10.42;100.00;99532.75;5011926;28;20494;-77
2022/12/31 05:25:44;;;;;;;2.45;1.30;;;11.90;99.90;;;10.39;100.00;99522.31;5012357;28;20034;-78
2022/12/31 05:28:10;;;;;;;2.33;0.82;;;11.80;99.90;;;10.32;100.00;99505.25;5012776;28;20038;-78
2022/12/31 05:30:36;;;;;;;1.95;0.85;;;11.80;99.90;;;10.35;100.00;99510.25;5006839;28;20121;-78
2022/12/31 05:33:02;;;;;;;1.25;0.70;;;11.80;99.90;;;10.36;100.00;99515.44;5001366;28;20042;-78
2022/12/31 05:35:28;;;;;;;0.85;0.70;;;11.80;99.90;;;10.31;100.00;99506.31;5012214;28;20035;-78
2022/12/31 05:37:53;;;;;;;2.10;0.63;;;11.80;99.90;;;10.31;100.00;99518.06;4996438;28;20030;-77
2022/12/31 05:40:19;;;;;;;1.48;0.60;;;11.80;99.90;;;10.26;100.00;99534.31;5012099;28;20400;-77
2022/12/31 05:42:45;;;;;;;1.00;0.50;;;11.70;99.90;;;10.18;100.00;99534.69;5012981;28;20112;-77
2022/12/31 05:45:14;;;;;;;1.58;0.50;;;11.80;99.90;;;10.19;100.00;99545.38;5004582;28;20042;-77
2022/12/31 05:47:41;;;;;;;1.38;0.35;;;11.50;99.90;;;10.20;100.00;99551.63;5008684;28;20096;-78
2022/12/31 05:50:14;;;;;;;2.03;0.45;;;11.70;99.90;;;10.15;100.00;99552.38;5008563;28;20036;-78
2022/12/31 05:52:42;;;;;;;0.95;0.45;;;11.50;99.90;;;10.12;100.00;99560.19;5004033;28;20548;-78
2022/12/31 05:55:08;;;;;;;;;;;11.50;99.90;;;10.07;100.00;99563.63;5008582;28;20089;-78
2022/12/31 05:57:34;;;;;;;0.93;0.32;;;11.60;99.90;;;9.98;100.00;99557.75;5008834;28;19917;-78
2022/12/31 05:59:59;;;;;;;1.60;0.20;;;11.50;99.90;;;10.04;100.00;99569.56;5005914;28;20525;-78
2022/12/31 06:02:25;;;;;;;0.77;0.30;;;11.50;99.90;;;9.99;100.00;99564.84;5013004;28;20034;-78
2022/12/31 06:04:51;;;;;;;0.63;0.30;;;11.50;99.90;;;9.93;100.00;99549.44;5000162;28;20401;-78
2022/12/31 06:07:17;;;;;;;0.65;0.25;;;11.40;99.90;;;9.96;100.00;99559.88;5007605;28;20461;-78
2022/12/31 06:09:42;;;;;;;0.88;0.30;;;11.30;99.90;;;9.99;100.00;99564.00;5008132;28;20122;-78
2022/12/31 06:12:08;;;;;;;0.80;0.30;;;11.50;99.90;;;9.97;100.00;99553.38;5011881;28;20064;-78
2022/12/31 06:14:34;;;;;;;1.95;0.50;;;11.40;99.90;;;9.93;100.00;99561.19;4999607;28;20093;-78
2022/12/31 06:17:01;;;;;;;0.63;0.30;;;11.40;99.90;;;9.84;100.00;99527.22;5007598;28;20061;-78
2022/12/31 06:19:26;;;;;;;1.10;0.15;;;11.30;99.90;;;9.86;100.00;99535.13;5008629;28;20038;-78
2022/12/31 06:21:52;;;;;;;2.05;0.38;;;11.40;99.90;;;9.89;100.00;99546.38;5001753;28;20374;-78
2022/12/31 06:24:18;;;;;;;0.60;0.20;;;11.30;99.90;;;9.79;100.00;99524.34;5012379;28;20026;-79
2022/12/31 06:26:43;;;;;;;0.52;0.20;;;11.40;99.90;;;9.83;100.00;99547.34;5002117;28;20034;-78
2022/12/31 06:29:09;;;;;;;0.10;0.10;;;11.30;99.90;;;9.83;100.00;99539.16;5005972;28;20092;-78
2022/12/31 06:31:36;;;;;;;0.57;0.30;;;11.30;99.90;;;9.82;100.00;99514.88;5001795;28;20038;-78
2022/12/31 06:34:01;;;;;;;0.35;0.20;;;11.30;99.90;;;9.81;100.00;99537.75;5009860;28;20034;-77
2022/12/31 06:36:27;;;;;;;1.75;0.40;;;11.30;99.90;;;9.82;100.00;99540.25;5002566;28;20088;-78
2022/12/31 06:38:54;;;;;;;0.85;0.40;;;11.30;99.90;;;9.79;100.00;99527.91;5004530;28;20044;-77
2022/12/31 06:41:20;;;;;;;0.70;0.30;;;11.30;99.90;;;9.76;100.00;99527.56;4998887;28;20038;-77
2022/12/31 06:43:46;;;;;;;0.20;0.20;;;11.20;99.90;;;9.82;100.00;99539.41;4994765;28;20054;-78
2022/12/31 06:46:16;;;;;;;0.40;0.20;;;11.30;99.90;;;9.82;100.00;99533.94;5011290;28;20665;-77
2022/12/31 06:48:43;;;;;;;0.47;0.30;;;11.40;99.90;;;9.75;100.00;99531.34;5006181;28;20031;-77
2022/12/31 06:51:19;;;;;;;2.22;1.20;;;11.30;99.90;;;9.96;100.00;99550.88;5004761;28;20055;-77
2022/12/31 06:53:46;;;;;;;0.80;0.50;;;11.30;99.90;;;9.99;100.00;99556.66;5017655;28;20038;-76
2022/12/31 06:56:19;;;;;;;1.00;0.60;;;11.40;99.90;;;9.91;100.00;99552.41;5002573;28;20041;-76
2022/12/31 06:58:45;;;;;;;1.10;0.73;;;11.40;99.90;;;9.88;100.00;99558.34;4996812;28;20042;-80
2022/12/31 07:01:46;;;;;;;2.35;0.50;;;11.30;99.90;;;9.87;100.00;99556.69;4996983;28;20100;-76
2022/12/31 07:05:08;;;;;;;0.82;0.65;;;11.30;99.90;;;9.83;100.00;99552.78;5007301;28;20053;-77
2022/12/31 07:07:50;;;;;;;1.52;1.20;;;11.30;99.90;;;9.82;100.00;99540.25;5010846;28;20677;-77
2022/12/31 07:10:55;;;;;;;24.05;1.70;;;11.30;99.90;;;9.72;100.00;99542.72;5011225;28;20042;-77
2022/12/31 07:13:45;;;;;;;10.68;1.77;;;11.20;99.90;;;9.64;100.00;99554.78;5008267;28;20497;-78
2022/12/31 07:16:43;;;;;;;2.33;1.30;;;11.10;99.90;;;9.65;100.00;99545.56;5007492;28;20474;-78
2022/12/31 07:20:13;;;;;;;3.25;1.70;;;11.10;99.90;;;9.74;100.00;99546.03;5012860;28;20049;-78
2022/12/31 07:22:39;;;;;;;2.75;1.33;;;11.20;99.90;;;9.71;100.00;99549.22;4963525;28;20126;-78
2022/12/31 07:25:06;;;;;;;2.92;1.63;;;11.10;99.90;;;9.83;100.00;99549.22;4961709;28;20407;-78
2022/12/31 07:28:04;;;;;;;4.13;1.90;;;11.20;99.90;;;9.84;100.00;99567.22;4993290;28;20064;-78
2022/12/31 07:30:54;;;;;;;4.18;1.80;;;11.20;99.90;;;9.80;100.00;99536.91;5009436;28;20033;-77
2022/12/31 07:33:35;;;;;;;;;;;11.20;99.90;;;9.75;100.00;99531.34;5006764;28;20069;-78
2022/12/31 07:36:48;;;;;;;6.95;2.88;;;11.20;99.90;;;9.79;100.00;99595.16;5004046;28;19924;-77
2022/12/31 07:39:38;;;;;;;7.30;3.03;;;11.30;99.90;;;9.76;100.00;99565.69;5004892;28;20351;-78
2022/12/31 07:42:47;;;;;;;7.78;3.03;;;11.20;99.90;;;9.74;100.00;99578.72;5009396;28;20041;-79
2022/12/31 07:45:27;;;;;;;7.63;3.15;;;11.20;99.90;;;9.76;100.00;99590.19;4978508;28;20057;-79
2022/12/31 07:47:53;;;;;;;8.05;3.88;;;11.30;99.90;;;9.84;100.00;99587.13;4997535;28;20037;-78
2022/12/31 07:50:19;;;;;;;8.48;3.97;;;11.20;99.90;;;9.86;100.00;99584.16;5015568;28;20038;-78
2022/12/31 07:52:46;;;;;;;9.38;4.65;;;11.30;99.90;;;9.87;100.00;99588.53;4994317;28;20049;-79
2022/12/31 07:55:11;;;;;;;10.00;4.72;;;11.30;99.90;;;10.00;100.00;99607.38;5008197;28;20040;-78
2022/12/31 07:57:54;;;;;;;8.88;5.07;;;11.40;99.90;;;9.90;100.00;99596.22;5004805;28;20112;-76
2022/12/31 08:00:20;;;;;;;7.18;4.15;;;11.40;99.90;;;9.91;100.00;99606.91;4986966;28;20046;-79
2022/12/31 08:03:11;;;;;;;4.10;2.35;;;11.50;99.90;;;10.21;100.00;99614.09;5008304;28;20030;-79
2022/12/31 08:06:15;;;;;;;5.20;2.72;;;11.60;99.90;;;10.22;100.00;99618.47;5010142;28;20038;-79
2022/12/31 08:09:23;;;;;;;4.88;1.75;;;11.60;99.90;;;10.31;100.00;99623.53;4998562;28;20116;-78
2022/12/31 08:12:00;;;;;;;6.32;1.50;;;11.70;99.90;;;10.34;100.00;99623.06;5007118;28;20060;-80
2022/12/31 08:14:28;;;;;;;1.98;0.80;;;11.70;99.90;;;10.30;100.00;99628.19;5011342;28;20484;-82
2022/12/31 08:16:54;;;;;;;2.10;0.70;;;11.70;99.90;;;10.24;100.00;99629.16;5008894;28;20105;-84
2022/12/31 08:19:29;;;;;;;1.20;0.70;;;11.70;99.90;;;10.16;100.00;99633.06;5003924;28;20113;-79
2022/12/31 08:22:16;;;;;;;1.52;0.88;;;11.70;99.90;;;10.21;100.00;99651.41;5005638;28;20041;-78
2022/12/31 08:25:13;;;;;;;1.92;0.85;;;11.70;99.90;;;10.25;100.00;99659.94;5003688;28;20168;-80
2022/12/31 08:27:57;;;;;;;2.88;0.95;;;11.70;99.90;;;10.18;100.00;99669.09;4996723;28;20121;-79
2022/12/31 08:30:38;;;;;;;1.67;0.82;;;11.70;99.90;;;10.17;100.00;99661.97;5015948;28;20034;-79
2022/12/31 08:33:26;;;;;;;1.92;0.80;;;11.70;99.90;;;10.24;100.00;99663.75;5004394;28;20445;-81
2022/12/31 08:36:09;;;;;;;0.98;0.68;;;11.70;99.90;;;10.18;100.00;99666.34;5003102;28;20389;-80
2022/12/31 08:38:49;;;;;;;1.95;1.00;;;11.60;99.90;;;10.18;100.00;99666.34;5005264;28;20061;-79
2022/12/31 08:41:24;;;;;;;2.75;1.20;;;11.50;99.90;;;10.16;100.00;99664.94;5004582;28;20100;-79
2022/12/31 08:44:27;;;;;;;2.65;1.40;;;11.60;99.90;;;10.13;100.00;99658.06;5005282;28;20477;-78
2022/12/31 08:47:01;;;;;;;1.90;1.33;;;11.60;99.90;;;10.12;100.00;99655.56;4998173;28;20042;-78
2022/12/31 08:49:32;;;;;;;7.78;4.00;;;11.70;99.90;;;10.11;100.00;99660.22;5006908;28;20061;-77
2022/12/31 08:51:59;;;;;;;3.72;1.83;;;11.70;99.90;;;10.12;100.00;99659.16;5010393;28;20037;-79
2022/12/31 08:54:26;;;;;;;1.85;0.70;;;11.60;99.90;;;10.10;100.00;99650.38;5010574;28;20038;-79
2022/12/31 08:57:20;;;;;;;1.98;1.13;;;11.70;99.90;;;10.16;100.00;99660.31;5010497;28;20038;-79
2022/12/31 09:00:10;;;;;;;1.33;0.60;;;11.70;99.90;;;10.24;100.00;99663.75;5011084;28;20140;-79
2022/12/31 09:03:30;;;;;;;1.58;0.77;;;11.80;99.90;;;10.32;100.00;99656.03;5009619;28;20501;-78
2022/12/31 09:06:15;;;;;;;1.20;0.45;;;11.80;99.90;;;10.40;100.00;99654.00;4999656;28;20119;-79
2022/12/31 09:09:02;;;;;;;0.95;0.40;;;11.80;99.90;;;10.42;100.00;99654.63;4991589;28;20042;-77
2022/12/31 09:12:02;;;;;;;1.33;0.55;;;11.80;99.90;;;10.32;100.00;99642.41;5004698;28;20126;-78
2022/12/31 09:14:44;;;;;;;1.63;0.50;;;11.80;99.90;;;10.32;100.00;99652.47;5004879;28;20315;-78
2022/12/31 09:17:45;;;;;;;1.23;0.70;;;11.80;99.90;;;10.30;100.00;99650.00;5014042;28;20044;-78
2022/12/31 09:20:25;;;;;;;1.25;0.60;;;11.70;99.90;;;10.41;100.00;99648.34;5002771;28;20079;-77
2022/12/31 09:22:53;;;;;;;0.50;0.47;;;11.80;99.90;;;10.56;100.00;99645.09;4997259;28;20030;-78
2022/12/31 09:25:22;;;;;;;1.23;0.60;;;11.90;99.90;;;10.69;100.00;99649.47;5016260;28;20038;-77
2022/12/31 09:28:37;;;;;;;1.83;0.85;;;12.00;99.90;;;10.82;100.00;99650.22;5006588;28;20473;-78
2022/12/31 09:31:36;;;;;;;1.58;1.00;;;12.20;99.90;;;10.95;100.00;99641.78;5001584;28;20444;-77
2022/12/31 09:34:48;;;;;;;1.50;0.88;;;12.30;99.90;;;10.98;100.00;99641.28;5007999;28;20486;-80
2022/12/31 09:37:38;;;;;;;1.20;0.85;;;12.40;99.90;;;11.07;100.00;99634.34;5009791;28;20046;-78
2022/12/31 09:40:49;;;;;;;3.53;1.10;;;12.50;99.90;;;11.27;100.00;99645.88;5008869;28;20605;-79
2022/12/31 09:43:47;;;;;;;2.28;1.05;;;12.60;99.90;;;11.44;100.00;99633.06;5000576;28;20060;-80
2022/12/31 09:47:13;;;;;;;1.90;1.35;;;12.80;99.90;;;11.65;100.00;99641.63;5011179;28;20049;-78
2022/12/31 09:50:32;;;;;;;2.83;1.10;;;13.00;99.90;;;11.77;100.00;99630.59;5004759;28;20046;-77
2022/12/31 09:53:17;;;;;;;4.93;1.27;;;13.10;99.90;;;11.99;100.00;99640.75;5004104;28;20062;-76
2022/12/31 09:56:16;;;;;;;1.55;0.90;;;13.30;99.90;;;12.11;100.00;99655.19;5003629;28;20038;-78
2022/12/31 09:59:12;;;;;;;2.55;0.90;;;13.50;99.90;;;12.25;100.00;99663.03;5012334;28;20046;-77
2022/12/31 10:01:58;;;;;;;1.98;0.70;;;13.70;99.90;;;12.58;100.00;99691.38;5007243;28;20030;-77
2022/12/31 10:05:20;;;;;;;2.53;0.75;;;13.90;99.90;;;12.80;100.00;99692.19;5000254;28;20085;-78
2022/12/31 10:08:33;;;;;;;3.28;0.80;;;14.20;99.90;;;12.88;100.00;99706.50;4982295;28;20041;-78
2022/12/31 10:11:27;;;;;;;3.13;0.52;;;14.20;99.90;;;13.04;100.00;99704.78;4993722;28;20057;-75
2022/12/31 10:14:29;;;;;;;1.60;0.65;;;14.40;99.90;;;13.38;100.00;99694.47;5008813;28;20038;-78
2022/12/31 10:17:38;;;;;;;1.70;0.60;;;14.70;99.90;;;13.39;100.00;99700.75;5016536;28;20498;-78
2022/12/31 10:20:37;;;;;;;3.15;0.50;;;14.80;99.90;;;13.56;100.00;99700.72;5009901;28;20474;-77
2022/12/31 10:23:38;;;;;;;2.35;0.45;;;14.90;99.90;;;13.88;100.00;99691.66;5011899;28;20390;-77
2022/12/31 10:26:36;;;;;;;2.78;0.50;;;15.20;99.90;;;14.01;100.00;99705.97;4983945;28;20113;-77
2022/12/31 10:29:23;;;;;;;1.45;0.40;;;15.20;99.90;;;14.32;100.00;99711.69;5023130;28;20042;-77
2022/12/31 10:32:19;;;;;;;2.03;0.40;;;15.60;99.90;;;14.79;100.00;99688.09;4993642;28;20035;-77
2022/12/31 10:35:26;;;;;;;3.38;0.40;;;16.00;99.90;;;15.01;100.00;99739.25;5001815;28;20057;-78
2022/12/31 10:38:44;;;;;;;2.22;0.40;;;16.30;99.90;;;15.03;100.00;99704.91;5009988;28;20069;-78
2022/12/31 10:41:56;;;;;;;1.58;0.60;;;16.40;99.90;;;15.19;100.00;99705.78;5010097;28;20161;-78
2022/12/31 10:45:02;;;;;;;2.13;0.40;;;16.50;99.90;;;15.24;100.00;99694.81;5025974;28;20050;-77
2022/12/31 10:47:31;;;;;;;4.22;0.40;;;16.60;99.90;;;15.21;100.00;99708.28;5010931;28;20033;-78
2022/12/31 10:50:33;;;;;;;1.58;0.40;;;16.60;99.90;;;15.41;100.00;99723.97;5011761;28;20041;-78
2022/12/31 10:53:40;;;;;;;1.05;0.43;;;16.70;99.90;;;15.41;100.00;99703.94;5001195;28;20036;-78
2022/12/31 10:56:54;;;;;;;2.10;0.50;;;16.70;99.90;;;15.55;100.00;99699.53;4999670;28;20497;-76
2022/12/31 11:00:09;;;;;;;1.30;0.40;;;16.90;99.90;;;15.65;97.85;99699.56;4995848;28;20096;-77
2022/12/31 11:03:09;;;;;;;2.38;0.40;;;17.00;99.90;;;15.54;99.58;99706.13;5004028;28;20497;-77
2022/12/31 11:06:42;;;;;;;4.82;2.72;;;16.90;99.90;;;15.60;96.75;99718.78;5010422;28;20050;-77
2022/12/31 11:09:51;;;;;;;1.48;0.40;;;16.90;99.90;;;15.82;91.21;99747.94;4999658;28;20077;-78
2022/12/31 11:12:38;;;;;;;2.45;0.68;;;;;;;15.81;91.99;99738.88;5006756;28;20422;-79